createdAt,value
2018-02-27T00:00:32.020Z,1019.7
2018-02-27T00:01:34.766Z,1019.7
2018-02-27T00:02:37.175Z,1019.7
2018-02-27T00:03:39.577Z,1019.7
2018-02-27T00:04:41.997Z,1019.7
2018-02-27T00:05:44.980Z,1019.7
2018-02-27T00:06:47.438Z,1019.8
2018-02-27T00:07:49.812Z,1019.7
2018-02-27T00:08:52.222Z,1019.7
2018-02-27T00:09:54.637Z,1019.7
2018-02-27T00:10:57.069Z,1019.6
2018-02-27T00:11:59.784Z,1019.6
2018-02-27T00:13:02.479Z,1019.6
2018-02-27T00:14:04.898Z,1019.6
2018-02-27T00:15:07.304Z,1019.6
2018-02-27T00:16:09.728Z,1019.6
2018-02-27T00:17:12.428Z,1019.5
2018-02-27T00:18:14.833Z,1019.5
2018-02-27T00:19:17.539Z,1019.6
2018-02-27T00:20:19.952Z,1019.6
2018-02-27T00:21:22.362Z,1019.6
2018-02-27T00:22:24.781Z,1019.6
2018-02-27T00:23:27.193Z,1019.6
2018-02-27T00:24:29.600Z,1019.6
2018-02-27T00:25:32.029Z,1019.6
2018-02-27T00:26:34.441Z,1019.5
2018-02-27T00:27:36.856Z,1019.5
2018-02-27T00:28:39.273Z,1019.5
2018-02-27T00:29:41.672Z,1019.5
2018-02-27T00:30:44.086Z,1019.5
2018-02-27T00:31:46.770Z,1019.4
2018-02-27T00:32:49.197Z,1019.5
2018-02-27T00:33:51.611Z,1019.5
2018-02-27T00:34:54.017Z,1019.5
2018-02-27T00:35:56.434Z,1019.4
2018-02-27T00:36:58.852Z,1019.4
2018-02-27T00:38:01.559Z,1019.4
2018-02-27T00:39:03.976Z,1019.3
2018-02-27T00:40:06.679Z,1019.3
2018-02-27T00:41:09.088Z,1019.3
2018-02-27T00:42:12.077Z,1019.3
2018-02-27T00:43:14.487Z,1019.3
2018-02-27T00:44:17.175Z,1019.3
2018-02-27T00:45:19.593Z,1019.2
2018-02-27T00:46:22.005Z,1019.2
2018-02-27T00:47:24.423Z,1019.2
2018-02-27T00:48:26.832Z,1019.2
2018-02-27T00:49:29.244Z,1019.2
2018-02-27T00:50:31.949Z,1019.2
2018-02-27T00:51:34.358Z,1019.2
2018-02-27T00:52:36.762Z,1019.2
2018-02-27T00:53:39.185Z,1019.2
2018-02-27T00:54:41.600Z,1019.1
2018-02-27T00:55:44.016Z,1019.1
2018-02-27T00:56:46.431Z,1019.1
2018-02-27T00:57:48.847Z,1019.1
2018-02-27T00:58:51.259Z,1019.1
2018-02-27T00:59:53.671Z,1019.1
2018-02-27T01:00:56.088Z,1019.1
2018-02-27T01:01:58.491Z,1019.1
2018-02-27T01:03:00.910Z,1019
2018-02-27T01:04:03.324Z,1019.1
2018-02-27T01:05:05.749Z,1019
2018-02-27T01:06:08.147Z,1019.1
2018-02-27T01:07:10.578Z,1019
2018-02-27T01:08:12.987Z,1019
2018-02-27T01:09:15.401Z,1019
2018-02-27T01:10:17.816Z,1018.9
2018-02-27T01:11:20.232Z,1019
2018-02-27T01:12:22.642Z,1018.9
2018-02-27T01:13:25.137Z,1018.9
2018-02-27T01:14:27.471Z,1018.9
2018-02-27T01:15:29.894Z,1018.9
2018-02-27T01:16:32.306Z,1019
2018-02-27T01:17:34.710Z,1018.9
2018-02-27T01:18:37.135Z,1018.8
2018-02-27T01:19:39.552Z,1018.9
2018-02-27T01:20:41.961Z,1018.9
2018-02-27T01:21:44.376Z,1018.9
2018-02-27T01:22:46.790Z,1018.9
2018-02-27T01:23:49.198Z,1018.9
2018-02-27T01:24:51.628Z,1018.8
2018-02-27T01:25:54.045Z,1018.9
2018-02-27T01:26:56.451Z,1018.8
2018-02-27T01:27:58.866Z,1018.8
2018-02-27T01:29:01.285Z,1018.8
2018-02-27T01:30:03.700Z,1018.8
2018-02-27T01:31:06.405Z,1018.8
2018-02-27T01:32:09.116Z,1018.9
2018-02-27T01:33:11.535Z,1018.8
2018-02-27T01:34:13.947Z,1018.9
2018-02-27T01:35:16.367Z,1018.9
2018-02-27T01:36:18.781Z,1018.8
2018-02-27T01:37:21.765Z,1018.7
2018-02-27T01:38:24.178Z,1018.8
2018-02-27T01:39:26.597Z,1018.7
2018-02-27T01:40:29.003Z,1018.7
2018-02-27T01:41:31.423Z,1018.7
2018-02-27T01:42:33.836Z,1018.7
2018-02-27T01:43:36.249Z,1018.7
2018-02-27T01:44:38.673Z,1018.7
2018-02-27T01:45:41.087Z,1018.7
2018-02-27T01:46:43.500Z,1018.7
2018-02-27T01:47:45.921Z,1018.7
2018-02-27T01:48:48.330Z,1018.7
2018-02-27T01:49:50.743Z,1018.6
2018-02-27T01:50:53.464Z,1018.6
2018-02-27T01:51:55.866Z,1018.6
2018-02-27T01:52:58.566Z,1018.6
2018-02-27T01:54:00.987Z,1018.7
2018-02-27T01:55:03.691Z,1018.7
2018-02-27T01:56:06.104Z,1018.6
2018-02-27T01:57:08.529Z,1018.6
2018-02-27T01:58:10.928Z,1018.6
2018-02-27T01:59:13.349Z,1018.5
2018-02-27T02:00:15.765Z,1018.6
2018-02-27T02:01:18.183Z,1018.5
2018-02-27T02:02:20.886Z,1018.5
2018-02-27T02:03:23.307Z,1018.4
2018-02-27T02:04:25.727Z,1018.5
2018-02-27T02:05:28.128Z,1018.5
2018-02-27T02:06:30.834Z,1018.5
2018-02-27T02:07:33.249Z,1018.5
2018-02-27T02:08:35.667Z,1018.4
2018-02-27T02:09:38.080Z,1018.3
2018-02-27T02:10:40.495Z,1018.3
2018-02-27T02:11:42.905Z,1018.4
2018-02-27T02:12:45.331Z,1018.3
2018-02-27T02:13:47.748Z,1018.4
2018-02-27T02:14:50.159Z,1018.3
2018-02-27T02:15:52.872Z,1018.3
2018-02-27T02:16:55.284Z,1018.3
2018-02-27T02:17:57.707Z,1018.3
2018-02-27T02:19:00.405Z,1018.2
2018-02-27T02:20:02.816Z,1018.2
2018-02-27T02:21:05.231Z,1018.2
2018-02-27T02:22:07.645Z,1018.2
2018-02-27T02:23:10.056Z,1018.2
2018-02-27T02:24:12.486Z,1018.2
2018-02-27T02:25:15.194Z,1018.2
2018-02-27T02:26:17.891Z,1018.2
2018-02-27T02:27:20.304Z,1018.2
2018-02-27T02:28:22.714Z,1018.2
2018-02-27T02:29:25.454Z,1018.1
2018-02-27T02:30:28.142Z,1018.1
2018-02-27T02:31:30.549Z,1018.1
2018-02-27T02:32:32.961Z,1018.1
2018-02-27T02:33:35.993Z,1018.1
2018-02-27T02:34:38.396Z,1018.1
2018-02-27T02:35:41.117Z,1018.1
2018-02-27T02:36:43.526Z,1018.1
2018-02-27T02:37:45.936Z,1018.1
2018-02-27T02:38:48.654Z,1018.1
2018-02-27T02:39:51.372Z,1018.1
2018-02-27T02:40:54.367Z,1018.1
2018-02-27T02:41:56.791Z,1018.1
2018-02-27T02:42:59.198Z,1018.1
2018-02-27T02:44:01.617Z,1018
2018-02-27T02:45:04.030Z,1018
2018-02-27T02:46:06.446Z,1018
2018-02-27T02:47:09.143Z,1018
2018-02-27T02:48:11.564Z,1018
2018-02-27T02:49:13.984Z,1017.9
2018-02-27T02:50:16.388Z,1018
2018-02-27T02:51:18.813Z,1017.9
2018-02-27T02:52:21.509Z,1017.9
2018-02-27T02:53:23.928Z,1018
2018-02-27T02:54:26.343Z,1017.9
2018-02-27T02:55:28.764Z,1018
2018-02-27T02:56:31.175Z,1017.9
2018-02-27T02:57:33.602Z,1017.9
2018-02-27T02:58:36.019Z,1017.9
2018-02-27T02:59:38.426Z,1017.9
2018-02-27T03:00:40.839Z,1017.9
2018-02-27T03:01:43.257Z,1017.9
2018-02-27T03:02:45.661Z,1017.9
2018-02-27T03:03:48.079Z,1017.9
2018-02-27T03:04:50.484Z,1017.8
2018-02-27T03:05:53.780Z,1017.9
2018-02-27T03:06:56.494Z,1017.9
2018-02-27T03:07:58.910Z,1017.8
2018-02-27T03:09:01.328Z,1017.8
2018-02-27T03:10:03.751Z,1017.8
2018-02-27T03:11:06.449Z,1017.8
2018-02-27T03:12:08.858Z,1017.8
2018-02-27T03:13:11.573Z,1017.8
2018-02-27T03:14:13.968Z,1017.9
2018-02-27T03:15:16.380Z,1017.8
2018-02-27T03:16:18.797Z,1017.8
2018-02-27T03:17:21.219Z,1017.8
2018-02-27T03:18:23.638Z,1017.8
2018-02-27T03:19:26.342Z,1017.8
2018-02-27T03:20:28.750Z,1017.8
2018-02-27T03:21:31.172Z,1017.8
2018-02-27T03:22:33.592Z,1017.8
2018-02-27T03:23:36.005Z,1017.8
2018-02-27T03:24:38.415Z,1017.8
2018-02-27T03:25:40.828Z,1017.7
2018-02-27T03:26:43.528Z,1017.7
2018-02-27T03:27:45.944Z,1017.7
2018-02-27T03:28:48.636Z,1017.7
2018-02-27T03:29:51.055Z,1017.6
2018-02-27T03:30:53.454Z,1017.6
2018-02-27T03:31:55.866Z,1017.6
2018-02-27T03:32:58.283Z,1017.6
2018-02-27T03:34:00.983Z,1017.6
2018-02-27T03:35:03.407Z,1017.6
2018-02-27T03:36:05.814Z,1017.5
2018-02-27T03:37:08.227Z,1017.5
2018-02-27T03:38:10.657Z,1017.5
2018-02-27T03:39:13.071Z,1017.5
2018-02-27T03:40:15.489Z,1017.5
2018-02-27T03:41:17.904Z,1017.5
2018-02-27T03:42:20.318Z,1017.5
2018-02-27T03:43:23.037Z,1017.5
2018-02-27T03:44:25.450Z,1017.5
2018-02-27T03:45:27.829Z,1017.5
2018-02-27T03:46:30.238Z,1017.5
2018-02-27T03:47:32.674Z,1017.5
2018-02-27T03:48:35.086Z,1017.4
2018-02-27T03:49:37.497Z,1017.5
2018-02-27T03:50:39.912Z,1017.4
2018-02-27T03:51:42.332Z,1017.4
2018-02-27T03:52:45.329Z,1017.4
2018-02-27T03:53:47.754Z,1017.4
2018-02-27T03:54:50.157Z,1017.4
2018-02-27T03:55:52.566Z,1017.3
2018-02-27T03:56:55.290Z,1017.3
2018-02-27T03:57:57.984Z,1017.3
2018-02-27T03:59:00.395Z,1017.3
2018-02-27T04:00:02.814Z,1017.3
2018-02-27T04:01:05.516Z,1017.2
2018-02-27T04:02:07.920Z,1017.3
2018-02-27T04:03:10.625Z,1017.3
2018-02-27T04:04:13.337Z,1017.3
2018-02-27T04:05:15.749Z,1017.2
2018-02-27T04:06:18.155Z,1017.2
2018-02-27T04:07:20.864Z,1017.2
2018-02-27T04:08:23.553Z,1017.2
2018-02-27T04:09:25.980Z,1017.2
2018-02-27T04:10:28.393Z,1017.2
2018-02-27T04:11:30.798Z,1017.2
2018-02-27T04:12:33.222Z,1017.2
2018-02-27T04:13:35.631Z,1017.2
2018-02-27T04:14:38.052Z,1017.2
2018-02-27T04:15:40.459Z,1017.1
2018-02-27T04:16:43.226Z,1017.2
2018-02-27T04:17:45.586Z,1017.2
2018-02-27T04:18:48.014Z,1017.2
2018-02-27T04:19:50.417Z,1017.2
2018-02-27T04:20:52.838Z,1017.2
2018-02-27T04:21:55.242Z,1017.1
2018-02-27T04:22:57.650Z,1017.1
2018-02-27T04:24:00.071Z,1017.1
2018-02-27T04:25:03.062Z,1017.1
2018-02-27T04:26:05.470Z,1017.1
2018-02-27T04:27:08.182Z,1017.1
2018-02-27T04:28:10.864Z,1017.1
2018-02-27T04:29:13.274Z,1017.1
2018-02-27T04:30:15.696Z,1017.1
2018-02-27T04:31:18.104Z,1017
2018-02-27T04:32:20.524Z,1017
2018-02-27T04:33:22.940Z,1017
2018-02-27T04:34:25.657Z,1017.1
2018-02-27T04:35:28.364Z,1017.1
2018-02-27T04:36:30.778Z,1017.1
2018-02-27T04:37:33.178Z,1017
2018-02-27T04:38:35.600Z,1017.1
2018-02-27T04:39:38.328Z,1017
2018-02-27T04:40:40.734Z,1017
2018-02-27T04:41:43.436Z,1017
2018-02-27T04:42:45.844Z,1017
2018-02-27T04:43:48.294Z,1016.9
2018-02-27T04:44:50.970Z,1016.9
2018-02-27T04:45:53.384Z,1017
2018-02-27T04:46:55.798Z,1016.9
2018-02-27T04:47:58.219Z,1016.8
2018-02-27T04:49:00.630Z,1016.9
2018-02-27T04:50:03.356Z,1016.9
2018-02-27T04:51:06.084Z,1016.8
2018-02-27T04:52:08.771Z,1016.8
2018-02-27T04:53:11.473Z,1016.8
2018-02-27T04:54:13.890Z,1016.8
2018-02-27T04:55:16.588Z,1016.8
2018-02-27T04:56:19.011Z,1016.8
2018-02-27T04:57:21.422Z,1016.8
2018-02-27T04:58:23.837Z,1016.8
2018-02-27T04:59:26.254Z,1016.7
2018-02-27T05:00:28.655Z,1016.7
2018-02-27T05:01:31.378Z,1016.8
2018-02-27T05:02:33.784Z,1016.8
2018-02-27T05:03:36.201Z,1016.8
2018-02-27T05:04:38.618Z,1016.8
2018-02-27T05:05:41.033Z,1016.8
2018-02-27T05:06:43.455Z,1016.8
2018-02-27T05:07:45.872Z,1016.8
2018-02-27T05:08:48.281Z,1016.7
2018-02-27T05:09:50.702Z,1016.8
2018-02-27T05:10:53.401Z,1016.8
2018-02-27T05:11:55.816Z,1016.8
2018-02-27T05:12:58.231Z,1016.7
2018-02-27T05:14:00.643Z,1016.7
2018-02-27T05:15:03.063Z,1016.7
2018-02-27T05:16:05.490Z,1016.8
2018-02-27T05:17:08.178Z,1016.7
2018-02-27T05:18:10.916Z,1016.7
2018-02-27T05:19:13.629Z,1016.8
2018-02-27T05:20:16.044Z,1016.7
2018-02-27T05:21:18.465Z,1016.7
2018-02-27T05:22:20.873Z,1016.7
2018-02-27T05:23:23.290Z,1016.7
2018-02-27T05:24:26.003Z,1016.7
2018-02-27T05:25:28.428Z,1016.7
2018-02-27T05:26:31.147Z,1016.7
2018-02-27T05:27:33.851Z,1016.7
2018-02-27T05:28:36.268Z,1016.7
2018-02-27T05:29:38.681Z,1016.7
2018-02-27T05:30:41.688Z,1016.7
2018-02-27T05:31:44.104Z,1016.7
2018-02-27T05:32:46.850Z,1016.7
2018-02-27T05:33:49.266Z,1016.6
2018-02-27T05:34:51.675Z,1016.7
2018-02-27T05:35:54.097Z,1016.7
2018-02-27T05:36:56.511Z,1016.7
2018-02-27T05:37:58.921Z,1016.6
2018-02-27T05:39:01.337Z,1016.7
2018-02-27T05:40:04.324Z,1016.7
2018-02-27T05:41:06.740Z,1016.6
2018-02-27T05:42:09.159Z,1016.7
2018-02-27T05:43:11.576Z,1016.7
2018-02-27T05:44:13.996Z,1016.7
2018-02-27T05:45:16.412Z,1016.7
2018-02-27T05:46:19.121Z,1016.6
2018-02-27T05:47:21.538Z,1016.7
2018-02-27T05:48:23.948Z,1016.7
2018-02-27T05:49:26.649Z,1016.7
2018-02-27T05:50:29.068Z,1016.7
2018-02-27T05:51:31.471Z,1016.7
2018-02-27T05:52:33.895Z,1016.7
2018-02-27T05:53:36.594Z,1016.6
2018-02-27T05:54:39.302Z,1016.7
2018-02-27T05:55:41.723Z,1016.6
2018-02-27T05:56:44.422Z,1016.6
2018-02-27T05:57:46.837Z,1016.6
2018-02-27T05:58:49.245Z,1016.7
2018-02-27T05:59:51.658Z,1016.7
2018-02-27T06:00:54.368Z,1016.7
2018-02-27T06:01:56.787Z,1016.7
2018-02-27T06:02:59.203Z,1016.7
2018-02-27T06:04:01.897Z,1016.6
2018-02-27T06:05:04.610Z,1016.6
2018-02-27T06:06:07.314Z,1016.6
2018-02-27T06:07:09.738Z,1016.6
2018-02-27T06:08:12.141Z,1016.6
2018-02-27T06:09:14.554Z,1016.6
2018-02-27T06:10:17.270Z,1016.6
2018-02-27T06:11:19.675Z,1016.6
2018-02-27T06:12:22.099Z,1016.6
2018-02-27T06:13:24.515Z,1016.6
2018-02-27T06:14:26.918Z,1016.5
2018-02-27T06:15:29.343Z,1016.5
2018-02-27T06:16:31.746Z,1016.5
2018-02-27T06:17:34.438Z,1016.5
2018-02-27T06:18:36.861Z,1016.5
2018-02-27T06:19:39.279Z,1016.5
2018-02-27T06:20:41.691Z,1016.5
2018-02-27T06:21:44.119Z,1016.4
2018-02-27T06:22:46.908Z,1016.5
2018-02-27T06:23:49.532Z,1016.5
2018-02-27T06:24:51.959Z,1016.5
2018-02-27T06:25:54.362Z,1016.5
2018-02-27T06:26:56.783Z,1016.5
2018-02-27T06:27:59.201Z,1016.5
2018-02-27T06:29:01.618Z,1016.5
2018-02-27T06:30:04.312Z,1016.5
2018-02-27T06:31:06.734Z,1016.5
2018-02-27T06:32:09.155Z,1016.5
2018-02-27T06:33:11.581Z,1016.5
2018-02-27T06:34:13.977Z,1016.5
2018-02-27T06:35:16.393Z,1016.4
2018-02-27T06:36:18.810Z,1016.4
2018-02-27T06:37:21.258Z,1016.4
2018-02-27T06:38:23.644Z,1016.4
2018-02-27T06:39:26.059Z,1016.3
2018-02-27T06:40:29.038Z,1016.4
2018-02-27T06:41:31.465Z,1016.4
2018-02-27T06:42:34.167Z,1016.3
2018-02-27T06:43:36.596Z,1016.4
2018-02-27T06:44:39.296Z,1016.3
2018-02-27T06:45:41.703Z,1016.3
2018-02-27T06:46:44.125Z,1016.3
2018-02-27T06:47:46.545Z,1016.3
2018-02-27T06:48:48.948Z,1016.3
2018-02-27T06:49:51.369Z,1016.3
2018-02-27T06:50:54.126Z,1016.2
2018-02-27T06:51:56.546Z,1016.3
2018-02-27T06:52:58.959Z,1016.3
2018-02-27T06:54:01.375Z,1016.3
2018-02-27T06:55:03.788Z,1016.3
2018-02-27T06:56:06.197Z,1016.3
2018-02-27T06:57:08.610Z,1016.3
2018-02-27T06:58:11.331Z,1016.3
2018-02-27T06:59:13.744Z,1016.3
2018-02-27T07:00:16.162Z,1016.3
2018-02-27T07:01:18.575Z,1016.3
2018-02-27T07:02:20.991Z,1016.3
2018-02-27T07:03:23.406Z,1016.3
2018-02-27T07:04:25.819Z,1016.3
2018-02-27T07:05:28.224Z,1016.3
2018-02-27T07:06:30.641Z,1016.3
2018-02-27T07:07:33.059Z,1016.3
2018-02-27T07:08:35.483Z,1016.3
2018-02-27T07:09:37.900Z,1016.3
2018-02-27T07:10:40.315Z,1016.3
2018-02-27T07:11:42.726Z,1016.3
2018-02-27T07:12:45.157Z,1016.2
2018-02-27T07:13:47.571Z,1016.2
2018-02-27T07:14:49.978Z,1016.2
2018-02-27T07:15:52.407Z,1016.2
2018-02-27T07:16:55.108Z,1016.1
2018-02-27T07:17:57.532Z,1016.2
2018-02-27T07:18:59.957Z,1016.1
2018-02-27T07:20:02.370Z,1016.1
2018-02-27T07:21:05.091Z,1016.1
2018-02-27T07:22:07.506Z,1016.1
2018-02-27T07:23:09.920Z,1016
2018-02-27T07:24:12.329Z,1016
2018-02-27T07:25:14.745Z,1016
2018-02-27T07:26:17.162Z,1016
2018-02-27T07:27:19.578Z,1015.9
2018-02-27T07:28:22.291Z,1015.9
2018-02-27T07:29:25.006Z,1016
2018-02-27T07:30:27.423Z,1016
2018-02-27T07:31:29.829Z,1016
2018-02-27T07:32:32.260Z,1015.9
2018-02-27T07:33:34.681Z,1015.9
2018-02-27T07:34:37.395Z,1016
2018-02-27T07:35:39.809Z,1015.9
2018-02-27T07:36:42.527Z,1015.9
2018-02-27T07:37:45.234Z,1015.9
2018-02-27T07:38:47.662Z,1015.9
2018-02-27T07:39:50.073Z,1015.8
2018-02-27T07:40:52.497Z,1015.8
2018-02-27T07:41:55.196Z,1015.8
2018-02-27T07:42:57.625Z,1015.9
2018-02-27T07:44:00.050Z,1015.9
2018-02-27T07:45:02.475Z,1015.8
2018-02-27T07:46:04.880Z,1015.8
2018-02-27T07:47:07.604Z,1015.8
2018-02-27T07:48:10.024Z,1015.8
2018-02-27T07:49:12.439Z,1015.8
2018-02-27T07:50:14.854Z,1015.8
2018-02-27T07:51:17.268Z,1015.8
2018-02-27T07:52:19.682Z,1015.8
2018-02-27T07:53:22.110Z,1015.8
2018-02-27T07:54:24.531Z,1015.8
2018-02-27T07:55:26.947Z,1015.8
2018-02-27T07:56:29.358Z,1015.8
2018-02-27T07:57:31.791Z,1015.8
2018-02-27T07:58:34.509Z,1015.8
2018-02-27T07:59:36.921Z,1015.8
2018-02-27T08:00:39.344Z,1015.9
2018-02-27T08:01:41.757Z,1015.8
2018-02-27T08:02:44.466Z,1015.9
2018-02-27T08:03:46.903Z,1015.8
2018-02-27T08:04:49.309Z,1015.8
2018-02-27T08:05:51.729Z,1015.8
2018-02-27T08:06:54.447Z,1015.8
2018-02-27T08:07:56.866Z,1015.8
2018-02-27T08:08:59.288Z,1015.8
2018-02-27T08:10:02.016Z,1015.8
2018-02-27T08:11:04.429Z,1015.8
2018-02-27T08:12:06.865Z,1015.9
2018-02-27T08:13:09.578Z,1015.9
2018-02-27T08:14:12.000Z,1015.7
2018-02-27T08:15:14.431Z,1015.8
2018-02-27T08:16:16.850Z,1015.8
2018-02-27T08:17:19.274Z,1015.8
2018-02-27T08:18:21.692Z,1015.8
2018-02-27T08:19:24.107Z,1015.8
2018-02-27T08:20:26.554Z,1015.8
2018-02-27T08:21:29.271Z,1015.8
2018-02-27T08:22:31.980Z,1015.8
2018-02-27T08:23:34.688Z,1015.8
2018-02-27T08:24:37.113Z,1015.8
2018-02-27T08:25:39.547Z,1015.8
2018-02-27T08:26:41.967Z,1015.7
2018-02-27T08:27:44.388Z,1015.8
2018-02-27T08:28:46.822Z,1015.8
2018-02-27T08:29:49.526Z,1015.8
2018-02-27T08:30:52.231Z,1015.8
2018-02-27T08:31:54.925Z,1015.8
2018-02-27T08:32:57.666Z,1015.8
2018-02-27T08:34:00.095Z,1015.7
2018-02-27T08:35:02.523Z,1015.8
2018-02-27T08:36:04.929Z,1015.8
2018-02-27T08:37:07.353Z,1015.7
2018-02-27T08:38:09.789Z,1015.7
2018-02-27T08:39:12.202Z,1015.7
2018-02-27T08:40:14.636Z,1015.8
2018-02-27T08:41:17.054Z,1015.7
2018-02-27T08:42:19.483Z,1015.8
2018-02-27T08:43:21.905Z,1015.7
2018-02-27T08:44:24.329Z,1015.8
2018-02-27T08:45:27.033Z,1015.8
2018-02-27T08:46:29.751Z,1015.8
2018-02-27T08:47:32.164Z,1015.8
2018-02-27T08:48:34.588Z,1015.8
2018-02-27T08:49:37.020Z,1015.8
2018-02-27T08:50:39.434Z,1015.9
2018-02-27T08:51:41.860Z,1015.8
2018-02-27T08:52:44.282Z,1015.9
2018-02-27T08:53:46.711Z,1015.8
2018-02-27T08:54:49.126Z,1015.8
2018-02-27T08:55:52.113Z,1015.8
2018-02-27T08:56:54.536Z,1015.8
2018-02-27T08:57:57.236Z,1015.8
2018-02-27T08:58:59.654Z,1015.8
2018-02-27T09:00:02.645Z,1015.9
2018-02-27T09:01:05.066Z,1015.8
2018-02-27T09:02:07.489Z,1015.8
2018-02-27T09:03:09.919Z,1015.8
2018-02-27T09:04:12.339Z,1015.8
2018-02-27T09:05:14.764Z,1015.8
2018-02-27T09:06:17.181Z,1015.8
2018-02-27T09:07:19.887Z,1015.8
2018-02-27T09:08:22.305Z,1015.8
2018-02-27T09:09:25.011Z,1015.8
2018-02-27T09:10:27.424Z,1015.8
2018-02-27T09:11:29.857Z,1015.8
2018-02-27T09:12:32.568Z,1015.8
2018-02-27T09:13:34.975Z,1015.8
2018-02-27T09:14:37.400Z,1015.8
2018-02-27T09:15:39.816Z,1015.8
2018-02-27T09:16:42.524Z,1015.8
2018-02-27T09:17:44.954Z,1015.7
2018-02-27T09:18:47.380Z,1015.7
2018-02-27T09:19:49.795Z,1015.7
2018-02-27T09:20:52.227Z,1015.7
2018-02-27T09:21:54.643Z,1015.7
2018-02-27T09:22:57.053Z,1015.7
2018-02-27T09:23:59.475Z,1015.6
2018-02-27T09:25:02.185Z,1015.7
2018-02-27T09:26:04.592Z,1015.6
2018-02-27T09:27:07.018Z,1015.7
2018-02-27T09:28:09.446Z,1015.6
2018-02-27T09:29:11.865Z,1015.6
2018-02-27T09:30:14.295Z,1015.6
2018-02-27T09:31:16.758Z,1015.6
2018-02-27T09:32:19.138Z,1015.6
2018-02-27T09:33:21.563Z,1015.6
2018-02-27T09:34:23.978Z,1015.5
2018-02-27T09:35:26.378Z,1015.5
2018-02-27T09:36:28.800Z,1015.5
2018-02-27T09:37:31.226Z,1015.5
2018-02-27T09:38:33.940Z,1015.5
2018-02-27T09:39:36.367Z,1015.5
2018-02-27T09:40:38.792Z,1015.4
2018-02-27T09:41:41.205Z,1015.4
2018-02-27T09:42:43.629Z,1015.5
2018-02-27T09:43:46.052Z,1015.4
2018-02-27T09:44:48.788Z,1015.4
2018-02-27T09:45:51.242Z,1015.3
2018-02-27T09:46:53.961Z,1015.3
2018-02-27T09:47:56.383Z,1015.3
2018-02-27T09:48:58.805Z,1015.3
2018-02-27T09:50:01.514Z,1015.3
2018-02-27T09:51:04.224Z,1015.3
2018-02-27T09:52:06.934Z,1015.4
2018-02-27T09:53:09.353Z,1015.4
2018-02-27T09:54:11.766Z,1015.3
2018-02-27T09:55:14.195Z,1015.4
2018-02-27T09:56:16.613Z,1015.3
2018-02-27T09:57:19.036Z,1015.3
2018-02-27T09:58:21.460Z,1015.3
2018-02-27T09:59:24.177Z,1015.3
2018-02-27T10:00:26.589Z,1015.3
2018-02-27T10:01:29.022Z,1015.3
2018-02-27T10:02:31.442Z,1015.3
2018-02-27T10:03:33.871Z,1015.3
2018-02-27T10:04:36.293Z,1015.3
2018-02-27T10:05:38.717Z,1015.3
2018-02-27T10:06:41.136Z,1015.3
2018-02-27T10:07:44.128Z,1015.3
2018-02-27T10:08:46.836Z,1015.3
2018-02-27T10:09:49.248Z,1015.3
2018-02-27T10:10:51.691Z,1015.3
2018-02-27T10:11:54.107Z,1015.3
2018-02-27T10:12:56.538Z,1015.3
2018-02-27T10:13:58.958Z,1015.3
2018-02-27T10:15:01.380Z,1015.3
2018-02-27T10:16:04.128Z,1015.3
2018-02-27T10:17:06.551Z,1015.2
2018-02-27T10:18:08.966Z,1015.2
2018-02-27T10:19:11.391Z,1015.2
2018-02-27T10:20:13.814Z,1015.2
2018-02-27T10:21:16.239Z,1015.2
2018-02-27T10:22:18.983Z,1015.3
2018-02-27T10:23:21.415Z,1015.3
2018-02-27T10:24:23.826Z,1015.3
2018-02-27T10:25:26.258Z,1015.2
2018-02-27T10:26:28.686Z,1015.2
2018-02-27T10:27:31.159Z,1015.2
2018-02-27T10:28:33.540Z,1015.2
2018-02-27T10:29:36.258Z,1015.2
2018-02-27T10:30:38.709Z,1015.1
2018-02-27T10:31:41.104Z,1015.2
2018-02-27T10:32:43.521Z,1015.2
2018-02-27T10:33:45.944Z,1015.2
2018-02-27T10:34:48.682Z,1015.2
2018-02-27T10:35:51.136Z,1015.2
2018-02-27T10:36:53.532Z,1015.2
2018-02-27T10:37:56.251Z,1015.2
2018-02-27T10:38:58.666Z,1015.2
2018-02-27T10:40:01.094Z,1015.2
2018-02-27T10:41:03.522Z,1015.3
2018-02-27T10:42:05.945Z,1015.3
2018-02-27T10:43:08.945Z,1015.2
2018-02-27T10:44:11.378Z,1015.2
2018-02-27T10:45:13.801Z,1015.2
2018-02-27T10:46:16.220Z,1015.2
2018-02-27T10:47:18.927Z,1015.1
2018-02-27T10:48:21.348Z,1015.2
2018-02-27T10:49:23.771Z,1015.2
2018-02-27T10:50:26.201Z,1015.1
2018-02-27T10:51:28.610Z,1015.2
2018-02-27T10:52:31.046Z,1015.1
2018-02-27T10:53:33.466Z,1015.1
2018-02-27T10:54:35.887Z,1015.2
2018-02-27T10:55:38.605Z,1015.1
2018-02-27T10:56:41.028Z,1015.1
2018-02-27T10:57:43.463Z,1015.1
2018-02-27T10:58:46.162Z,1015.1
2018-02-27T10:59:48.588Z,1015.1
2018-02-27T11:00:51.005Z,1015.1
2018-02-27T11:01:53.720Z,1015.1
2018-02-27T11:02:56.148Z,1015.1
2018-02-27T11:03:58.868Z,1015.1
2018-02-27T11:05:01.291Z,1015.1
2018-02-27T11:06:03.725Z,1015.1
2018-02-27T11:07:06.147Z,1015
2018-02-27T11:08:08.577Z,1015.1
2018-02-27T11:09:11.002Z,1015
2018-02-27T11:10:13.434Z,1015
2018-02-27T11:11:15.856Z,1015.1
2018-02-27T11:12:18.280Z,1015.1
2018-02-27T11:13:20.985Z,1015.1
2018-02-27T11:14:23.408Z,1015
2018-02-27T11:15:26.102Z,1015.1
2018-02-27T11:16:28.530Z,1015
2018-02-27T11:17:30.948Z,1015
2018-02-27T11:18:33.378Z,1015.1
2018-02-27T11:19:36.082Z,1015.1
2018-02-27T11:20:38.500Z,1015.2
2018-02-27T11:21:40.929Z,1015.2
2018-02-27T11:22:43.330Z,1015.2
2018-02-27T11:23:45.754Z,1015.1
2018-02-27T11:24:48.190Z,1015.2
2018-02-27T11:25:50.607Z,1015.2
2018-02-27T11:26:53.030Z,1015.2
2018-02-27T11:27:55.448Z,1015.2
2018-02-27T11:28:57.858Z,1015.2
2018-02-27T11:30:00.574Z,1015.2
2018-02-27T11:31:02.994Z,1015.2
2018-02-27T11:32:05.404Z,1015.2
2018-02-27T11:33:07.836Z,1015.2
2018-02-27T11:34:10.257Z,1015.2
2018-02-27T11:35:12.674Z,1015.1
2018-02-27T11:36:15.099Z,1015.2
2018-02-27T11:37:17.513Z,1015.1
2018-02-27T11:38:19.942Z,1015.2
2018-02-27T11:39:22.366Z,1015.1
2018-02-27T11:40:24.779Z,1015.1
2018-02-27T11:41:27.203Z,1015.1
2018-02-27T11:42:29.613Z,1015.1
2018-02-27T11:43:32.037Z,1015.1
2018-02-27T11:44:34.458Z,1015.2
2018-02-27T11:45:36.872Z,1015.1
2018-02-27T11:46:39.291Z,1015.1
2018-02-27T11:47:41.709Z,1015.1
2018-02-27T11:48:44.424Z,1015.1
2018-02-27T11:49:46.861Z,1015.1
2018-02-27T11:50:49.550Z,1015.1
2018-02-27T11:51:51.977Z,1015.1
2018-02-27T11:52:54.676Z,1015.1
2018-02-27T11:53:57.383Z,1015
2018-02-27T11:54:59.805Z,1015.1
2018-02-27T11:56:02.239Z,1015
2018-02-27T11:57:04.657Z,1015
2018-02-27T11:58:07.361Z,1015.1
2018-02-27T11:59:10.364Z,1015.1
2018-02-27T12:00:12.785Z,1015
2018-02-27T12:01:15.502Z,1015
2018-02-27T12:02:18.220Z,1015
2018-02-27T12:03:20.937Z,1015
2018-02-27T12:04:23.357Z,1014.9
2018-02-27T12:05:25.779Z,1015
2018-02-27T12:06:28.196Z,1015
2018-02-27T12:07:30.625Z,1015
2018-02-27T12:08:33.045Z,1015
2018-02-27T12:09:35.466Z,1014.9
2018-02-27T12:10:38.490Z,1014.9
2018-02-27T12:11:40.914Z,1014.9
2018-02-27T12:12:43.337Z,1015
2018-02-27T12:13:45.809Z,1015
2018-02-27T12:14:48.174Z,1015
2018-02-27T12:15:50.600Z,1015
2018-02-27T12:16:53.041Z,1015
2018-02-27T12:17:55.768Z,1015
2018-02-27T12:18:58.193Z,1014.9
2018-02-27T12:20:01.197Z,1014.9
2018-02-27T12:21:03.622Z,1014.9
2018-02-27T12:22:06.063Z,1014.9
2018-02-27T12:23:08.492Z,1014.9
2018-02-27T12:24:11.201Z,1014.9
2018-02-27T12:25:13.909Z,1014.9
2018-02-27T12:26:16.336Z,1014.9
2018-02-27T12:27:18.764Z,1014.9
2018-02-27T12:28:21.196Z,1015
2018-02-27T12:29:23.609Z,1014.9
2018-02-27T12:30:26.035Z,1014.9
2018-02-27T12:31:28.745Z,1014.9
2018-02-27T12:32:31.185Z,1014.9
2018-02-27T12:33:33.607Z,1014.9
2018-02-27T12:34:36.034Z,1014.9
2018-02-27T12:35:38.452Z,1014.9
2018-02-27T12:36:40.890Z,1015
2018-02-27T12:37:43.343Z,1014.9
2018-02-27T12:38:45.748Z,1014.9
2018-02-27T12:39:48.176Z,1014.8
2018-02-27T12:40:50.606Z,1015
2018-02-27T12:41:53.351Z,1014.9
2018-02-27T12:42:55.744Z,1014.8
2018-02-27T12:43:58.166Z,1014.8
2018-02-27T12:45:00.598Z,1014.8
2018-02-27T12:46:03.595Z,1014.8
2018-02-27T12:47:06.094Z,1014.8
2018-02-27T12:48:08.442Z,1014.9
2018-02-27T12:49:10.877Z,1014.9
2018-02-27T12:50:13.297Z,1014.9
2018-02-27T12:51:15.723Z,1014.9
2018-02-27T12:52:18.154Z,1014.8
2018-02-27T12:53:20.583Z,1014.9
2018-02-27T12:54:23.006Z,1014.8
2018-02-27T12:55:25.421Z,1014.9
2018-02-27T12:56:27.848Z,1014.8
2018-02-27T12:57:30.292Z,1014.8
2018-02-27T12:58:32.710Z,1014.7
2018-02-27T12:59:35.137Z,1014.7
2018-02-27T13:00:37.559Z,1014.7
2018-02-27T13:01:39.994Z,1014.7
2018-02-27T13:02:42.428Z,1014.8
2018-02-27T13:03:44.850Z,1014.7